createdAt,value
2023-12-29T00:00:31.960Z,100566.78
2023-12-29T00:02:59.127Z,100571.88
2023-12-29T00:05:26.425Z,100568.47
2023-12-29T00:07:53.486Z,100572.19
2023-12-29T00:10:20.708Z,100559.00
2023-12-29T00:12:47.834Z,100570.81
2023-12-29T00:15:18.649Z,100572.13
2023-12-29T00:17:48.410Z,100565.75
2023-12-29T00:20:28.807Z,100563.19
2023-12-29T00:23:00.915Z,100561.47
2023-12-29T00:25:28.234Z,100561.13
2023-12-29T00:27:55.368Z,100570.56
2023-12-29T00:30:22.414Z,100573.56
2023-12-29T00:32:52.079Z,100562.63
2023-12-29T00:35:19.083Z,100570.50
2023-12-29T00:37:46.232Z,100560.56
2023-12-29T00:40:13.645Z,100554.78
2023-12-29T00:42:40.714Z,100557.47
2023-12-29T00:45:08.812Z,100561.19
2023-12-29T00:47:36.105Z,100559.19
2023-12-29T00:50:06.627Z,100552.63
2023-12-29T00:52:33.599Z,100544.19
2023-12-29T00:55:00.921Z,100539.50
2023-12-29T00:57:28.039Z,100533.81
2023-12-29T00:59:55.097Z,100529.88
2023-12-29T01:02:22.200Z,100527.38
2023-12-29T01:04:49.321Z,100529.81
2023-12-29T01:07:19.018Z,100512.44
2023-12-29T01:09:46.122Z,100522.38
2023-12-29T01:12:13.180Z,100525.47
2023-12-29T01:14:40.206Z,100528.53
2023-12-29T01:17:07.215Z,100532.75
2023-12-29T01:19:34.695Z,100534.75
2023-12-29T01:22:01.802Z,100528.31
2023-12-29T01:24:39.866Z,100533.38
2023-12-29T01:27:10.108Z,100528.16
2023-12-29T01:29:37.876Z,100531.00
2023-12-29T01:32:06.263Z,100534.00
2023-12-29T01:34:33.530Z,100524.94
2023-12-29T01:37:00.921Z,100525.94
2023-12-29T01:39:27.961Z,100527.13
2023-12-29T01:41:59.143Z,100519.53
2023-12-29T01:44:26.142Z,100519.38
2023-12-29T01:46:56.142Z,100517.19
2023-12-29T01:49:23.775Z,100521.75
2023-12-29T01:51:54.394Z,100531.72
2023-12-29T01:54:23.151Z,100523.09
2023-12-29T01:56:53.147Z,100519.03
2023-12-29T01:59:26.338Z,100515.34
2023-12-29T02:01:55.847Z,100518.03
2023-12-29T02:04:25.612Z,100497.47
2023-12-29T02:06:53.134Z,100514.69
2023-12-29T02:09:20.466Z,100495.81
2023-12-29T02:11:48.433Z,100493.13
2023-12-29T02:14:17.899Z,100503.06
2023-12-29T02:17:00.003Z,100491.41
2023-12-29T02:19:38.963Z,100490.94
2023-12-29T02:22:06.920Z,100484.00
2023-12-29T02:24:35.558Z,100475.75
2023-12-29T02:27:19.472Z,100482.84
2023-12-29T02:29:57.636Z,100480.69
2023-12-29T02:32:27.726Z,100479.28
2023-12-29T02:34:55.956Z,100476.44
2023-12-29T02:37:25.820Z,100465.31
2023-12-29T02:39:53.266Z,100459.72
2023-12-29T02:42:23.484Z,100467.63
2023-12-29T02:44:50.631Z,100451.84
2023-12-29T02:47:17.786Z,100454.00
2023-12-29T02:49:44.973Z,100441.91
2023-12-29T02:52:12.283Z,100442.91
2023-12-29T02:54:39.384Z,100443.84
2023-12-29T02:57:06.403Z,100441.84
2023-12-29T02:59:35.949Z,100452.63
2023-12-29T03:02:03.052Z,100458.88
2023-12-29T03:04:30.168Z,100462.03
2023-12-29T03:06:57.341Z,100452.09
2023-12-29T03:09:24.474Z,100452.63
2023-12-29T03:11:51.473Z,100463.28
2023-12-29T03:14:18.488Z,100463.06
2023-12-29T03:16:48.009Z,100455.84
2023-12-29T03:19:15.173Z,100452.28
2023-12-29T03:21:42.301Z,100449.97
2023-12-29T03:24:09.471Z,100458.06
2023-12-29T03:26:36.624Z,100464.13
2023-12-29T03:29:03.632Z,100452.69
2023-12-29T03:31:30.733Z,100460.41
2023-12-29T03:34:00.437Z,100452.69
2023-12-29T03:36:27.549Z,100450.81
2023-12-29T03:38:54.556Z,100456.69
2023-12-29T03:41:21.557Z,100454.00
2023-12-29T03:43:48.540Z,100447.06
2023-12-29T03:46:18.911Z,100458.03
2023-12-29T03:48:46.433Z,100456.66
2023-12-29T03:51:17.242Z,100456.66
2023-12-29T03:53:44.277Z,100456.66
2023-12-29T03:56:16.829Z,100460.03
2023-12-29T03:58:44.105Z,100467.44
2023-12-29T04:01:11.745Z,100458.03
2023-12-29T04:03:39.081Z,100457.66
2023-12-29T04:06:06.884Z,100460.34
2023-12-29T04:08:38.067Z,100449.41
2023-12-29T04:11:06.265Z,100451.41
2023-12-29T04:13:33.580Z,100448.56
2023-12-29T04:16:01.039Z,100446.56
2023-12-29T04:18:30.548Z,100450.06
2023-12-29T04:20:57.757Z,100452.25
2023-12-29T04:23:24.775Z,100454.50
2023-12-29T04:25:54.391Z,100452.94
2023-12-29T04:28:21.445Z,100456.69
2023-12-29T04:30:48.575Z,100458.69
2023-12-29T04:33:15.757Z,100460.22
2023-12-29T04:35:42.727Z,100458.88
2023-12-29T04:38:09.793Z,100452.28
2023-12-29T04:40:37.710Z,100465.13
2023-12-29T04:43:07.497Z,100468.16
2023-12-29T04:45:34.623Z,100461.78
2023-12-29T04:48:01.861Z,100464.78
2023-12-29T04:50:29.071Z,100464.63
2023-12-29T04:52:56.137Z,100468.81
2023-12-29T04:55:23.182Z,100464.09
2023-12-29T04:57:50.262Z,100472.16
2023-12-29T05:00:20.276Z,100470.50
2023-12-29T05:02:47.285Z,100474.72
2023-12-29T05:05:14.485Z,100469.97
2023-12-29T05:07:42.295Z,100476.22
2023-12-29T05:10:10.069Z,100469.13
2023-12-29T05:12:37.158Z,100473.34
2023-12-29T05:15:05.537Z,100465.06
2023-12-29T05:17:35.170Z,100469.06
2023-12-29T05:20:02.707Z,100464.69
2023-12-29T05:22:29.719Z,100464.47
2023-12-29T05:24:56.718Z,100465.34
2023-12-29T05:27:23.738Z,100466.03
2023-12-29T05:29:50.845Z,100457.28
2023-12-29T05:32:17.926Z,100467.72
2023-12-29T05:34:47.558Z,100460.94
2023-12-29T05:37:14.784Z,100469.38
2023-12-29T05:39:43.045Z,100465.44
2023-12-29T05:42:10.160Z,100445.38
2023-12-29T05:44:37.481Z,100455.63
2023-12-29T05:47:05.140Z,100458.16
2023-12-29T05:49:32.300Z,100464.19
2023-12-29T05:52:02.054Z,100461.81
2023-12-29T05:54:29.079Z,100452.41
2023-12-29T05:56:56.193Z,100451.72
2023-12-29T05:59:23.260Z,100453.03
2023-12-29T06:01:50.411Z,100448.16
2023-12-29T06:04:17.603Z,100454.03
2023-12-29T06:06:44.756Z,100447.81
2023-12-29T06:09:14.432Z,100457.44
2023-12-29T06:11:41.635Z,100450.28
2023-12-29T06:14:08.680Z,100448.97
2023-12-29T06:16:35.731Z,100453.69
2023-12-29T06:19:04.878Z,100446.44
2023-12-29T06:21:31.960Z,100446.44
2023-12-29T06:23:58.993Z,100452.69
2023-12-29T06:26:28.760Z,100448.97
2023-12-29T06:28:55.773Z,100461.13
2023-12-29T06:31:23.020Z,100455.03
2023-12-29T06:33:50.230Z,100452.84
2023-12-29T06:36:17.482Z,100453.34
2023-12-29T06:38:44.533Z,100449.28
2023-12-29T06:41:11.646Z,100456.03
2023-12-29T06:43:41.339Z,100449.28
2023-12-29T06:46:08.389Z,100446.75
2023-12-29T06:48:35.748Z,100453.28
2023-12-29T06:51:02.981Z,100445.91
2023-12-29T06:53:30.002Z,100452.69
2023-12-29T06:55:57.070Z,100450.00
2023-12-29T06:58:24.175Z,100446.91
2023-12-29T07:00:53.931Z,100457.53
2023-12-29T07:03:21.054Z,100447.75
2023-12-29T07:05:48.154Z,100454.13
2023-12-29T07:08:15.204Z,100449.66
2023-12-29T07:10:42.422Z,100457.09
2023-12-29T07:13:09.882Z,100457.09
2023-12-29T07:15:37.113Z,100458.78
2023-12-29T07:18:07.457Z,100458.50
2023-12-29T07:20:35.069Z,100456.16
2023-12-29T07:23:02.219Z,100444.38
2023-12-29T07:25:29.424Z,100449.75
2023-12-29T07:27:56.536Z,100449.13
2023-12-29T07:30:23.663Z,100445.28
2023-12-29T07:32:50.828Z,100450.16
2023-12-29T07:35:20.662Z,100449.00
2023-12-29T07:37:48.187Z,100450.56
2023-12-29T07:40:15.831Z,100454.56
2023-12-29T07:42:43.477Z,100448.31
2023-12-29T07:45:10.663Z,100447.16
2023-12-29T07:47:38.030Z,100446.81
2023-12-29T07:50:05.866Z,100455.94
2023-12-29T07:52:35.579Z,100450.56
2023-12-29T07:55:02.624Z,100453.06
2023-12-29T07:57:29.718Z,100450.75
2023-12-29T07:59:56.786Z,100455.28
2023-12-29T08:02:26.040Z,100463.03
2023-12-29T08:04:53.134Z,100461.03
2023-12-29T08:07:20.257Z,100456.34
2023-12-29T08:09:49.942Z,100448.94
2023-12-29T08:12:16.956Z,100460.22
2023-12-29T08:14:43.983Z,100467.66
2023-12-29T08:17:11.537Z,100457.72
2023-12-29T08:19:38.660Z,100462.44
2023-12-29T08:22:06.415Z,100468.66
2023-12-29T08:24:33.403Z,100471.91
2023-12-29T08:27:04.088Z,100471.38
2023-12-29T08:29:31.231Z,100476.59
2023-12-29T08:31:58.244Z,100476.44
2023-12-29T08:34:28.280Z,100477.97
2023-12-29T08:36:55.671Z,100476.78
2023-12-29T08:39:22.670Z,100484.88
2023-12-29T08:41:49.808Z,100483.72
2023-12-29T08:44:19.421Z,100475.63
2023-12-29T08:46:46.405Z,100486.97
2023-12-29T08:49:13.508Z,100490.97
2023-12-29T08:51:40.546Z,100486.47
2023-12-29T08:54:07.615Z,100493.47
2023-12-29T08:56:34.685Z,100484.81
2023-12-29T08:59:01.718Z,100492.41
2023-12-29T09:01:31.391Z,100479.47
2023-12-29T09:03:58.530Z,100483.19
2023-12-29T09:06:25.611Z,100479.84
2023-12-29T09:08:52.733Z,100479.38
2023-12-29T09:11:19.750Z,100474.78
2023-12-29T09:13:46.784Z,100475.84
2023-12-29T09:16:14.406Z,100486.81
2023-12-29T09:18:44.173Z,100498.97
2023-12-29T09:21:11.274Z,100488.00
2023-12-29T09:23:38.446Z,100483.28
2023-12-29T09:26:05.927Z,100487.84
2023-12-29T09:28:34.724Z,100487.50
2023-12-29T09:31:01.836Z,100499.97
2023-12-29T09:33:29.219Z,100495.44
2023-12-29T09:35:58.846Z,100501.00
2023-12-29T09:38:25.892Z,100497.47
2023-12-29T09:40:54.338Z,100495.09
2023-12-29T09:43:21.644Z,100495.44
2023-12-29T09:45:53.234Z,100494.13
2023-12-29T09:48:22.967Z,100497.63
2023-12-29T09:50:52.322Z,100498.34
2023-12-29T09:53:22.734Z,100491.09
2023-12-29T09:55:50.184Z,100496.97
2023-12-29T09:58:20.319Z,100495.63
2023-12-29T10:00:50.431Z,100485.00
2023-12-29T10:03:17.590Z,100493.44
2023-12-29T10:05:51.811Z,100494.63
2023-12-29T10:08:24.689Z,100485.31
2023-12-29T10:10:54.404Z,100485.31
2023-12-29T10:13:24.090Z,100484.63
2023-12-29T10:16:05.291Z,100488.38
2023-12-29T10:18:38.956Z,100476.72
2023-12-29T10:21:22.405Z,100476.72
2023-12-29T10:24:02.455Z,100478.72
2023-12-29T10:26:29.680Z,100466.69
2023-12-29T10:28:58.498Z,100464.19
2023-12-29T10:31:25.925Z,100460.09
2023-12-29T10:33:53.196Z,100456.38
2023-12-29T10:36:20.287Z,100451.44
2023-12-29T10:38:47.271Z,100456.53
2023-12-29T10:41:18.227Z,100428.47
2023-12-29T10:43:46.591Z,100435.72
2023-12-29T10:46:13.592Z,100429.06
2023-12-29T10:48:41.264Z,100426.31
2023-12-29T10:51:08.430Z,100422.41
2023-12-29T10:53:40.551Z,100421.22
2023-12-29T10:56:20.866Z,100426.78
2023-12-29T10:58:58.471Z,100428.34
2023-12-29T11:01:25.744Z,100427.88
2023-12-29T11:03:59.373Z,100419.25
2023-12-29T11:06:27.726Z,100419.22
2023-12-29T11:08:54.756Z,100410.25
2023-12-29T11:11:24.782Z,100405.78
2023-12-29T11:13:52.094Z,100412.38
2023-12-29T11:16:22.933Z,100402.34
2023-12-29T11:18:51.608Z,100403.75
2023-12-29T11:21:22.832Z,100393.47
2023-12-29T11:23:49.970Z,100398.53
2023-12-29T11:26:17.352Z,100408.34
2023-12-29T11:28:48.319Z,100397.78
2023-12-29T11:31:17.320Z,100399.13
2023-12-29T11:33:51.724Z,100399.78
2023-12-29T11:36:31.381Z,100401.22
2023-12-29T11:39:12.136Z,100397.66
2023-12-29T11:41:45.673Z,100397.41
2023-12-29T11:44:26.380Z,100389.09
2023-12-29T11:46:53.432Z,100393.47
2023-12-29T11:49:20.888Z,100391.59
2023-12-29T11:51:48.838Z,100386.38
2023-12-29T11:54:23.952Z,100401.34
2023-12-29T11:56:51.817Z,100401.44
2023-12-29T11:59:23.813Z,100380.59
2023-12-29T12:01:52.424Z,100382.34
2023-12-29T12:04:38.080Z,100382.88
2023-12-29T12:07:05.766Z,100373.72
2023-12-29T12:09:32.802Z,100370.69
2023-12-29T12:11:59.909Z,100384.13
2023-12-29T12:14:48.624Z,100369.84
2023-12-29T12:17:32.651Z,100375.44
2023-12-29T12:20:03.132Z,100375.31
2023-12-29T12:22:35.511Z,100374.22
2023-12-29T12:25:05.244Z,100372.28
2023-12-29T12:27:32.934Z,100375.16
2023-12-29T12:30:03.904Z,100377.97
2023-12-29T12:32:31.603Z,100377.34
2023-12-29T12:34:58.802Z,100368.56
2023-12-29T12:37:28.230Z,100364.72
2023-12-29T12:39:56.104Z,100358.22
2023-12-29T12:42:24.509Z,100359.91
2023-12-29T12:45:12.089Z,100363.59
2023-12-29T12:47:45.876Z,100364.28
2023-12-29T12:50:14.450Z,100368.28
2023-12-29T12:52:41.914Z,100370.53
2023-12-29T12:55:10.732Z,100365.06
2023-12-29T12:57:38.928Z,100371.94
2023-12-29T13:00:10.359Z,100371.19
2023-12-29T13:02:38.798Z,100374.56
2023-12-29T13:05:07.358Z,100376.44
2023-12-29T13:07:35.381Z,100376.31
2023-12-29T13:10:04.193Z,100378.94
2023-12-29T13:12:31.286Z,100374.47
2023-12-29T13:15:09.811Z,100371.13
2023-12-29T13:17:36.852Z,100374.28
2023-12-29T13:20:04.501Z,100383.78
2023-12-29T13:22:31.705Z,100386.66
2023-12-29T13:24:59.080Z,100388.88
2023-12-29T13:27:26.184Z,100386.25
2023-12-29T13:29:54.018Z,100383.22
2023-12-29T13:32:27.029Z,100372.38
2023-12-29T13:35:08.051Z,100377.44
2023-12-29T13:37:43.569Z,100373.06
2023-12-29T13:40:18.999Z,100362.69
2023-12-29T13:42:52.187Z,100363.97
2023-12-29T13:45:21.045Z,100368.31
2023-12-29T13:47:52.001Z,100368.53
2023-12-29T13:50:19.400Z,100372.56
2023-12-29T13:52:46.904Z,100364.69
2023-12-29T13:55:21.584Z,100360.44
2023-12-29T13:57:48.695Z,100366.97
2023-12-29T14:00:16.834Z,100365.72
2023-12-29T14:02:47.867Z,100366.78
2023-12-29T14:05:28.759Z,100359.69
2023-12-29T14:08:05.164Z,100364.72
2023-12-29T14:10:33.262Z,100368.56
2023-12-29T14:13:08.831Z,100374.88
2023-12-29T14:15:37.023Z,100376.38
2023-12-29T14:18:17.769Z,100383.84
2023-12-29T14:20:47.598Z,100391.78
2023-12-29T14:23:14.995Z,100391.56
2023-12-29T14:25:42.110Z,100401.44
2023-12-29T14:28:17.145Z,100393.94
2023-12-29T14:30:45.061Z,100396.34
2023-12-29T14:33:12.502Z,100399.06
2023-12-29T14:35:39.810Z,100399.63
2023-12-29T14:38:09.570Z,100390.19
2023-12-29T14:40:36.676Z,100401.19
2023-12-29T14:43:04.086Z,100407.00
2023-12-29T14:45:31.452Z,100396.22
2023-12-29T14:48:00.836Z,100391.31
2023-12-29T14:50:28.381Z,100397.94
2023-12-29T14:52:55.472Z,100382.72
2023-12-29T14:55:25.099Z,100395.72
2023-12-29T14:57:52.262Z,100387.41
2023-12-29T15:00:19.754Z,100389.09
2023-12-29T15:02:46.800Z,100381.53
2023-12-29T15:05:13.905Z,100392.19
2023-12-29T15:07:41.042Z,100387.16
2023-12-29T15:10:09.210Z,100388.56
2023-12-29T15:12:38.942Z,100388.22
2023-12-29T15:15:06.866Z,100398.06
2023-12-29T15:17:33.943Z,100386.56
2023-12-29T15:20:00.964Z,100386.09
2023-12-29T15:22:27.910Z,100393.34
2023-12-29T15:24:54.998Z,100392.13
2023-12-29T15:27:22.023Z,100395.38
2023-12-29T15:29:51.612Z,100381.53
2023-12-29T15:32:18.628Z,100388.63
2023-12-29T15:34:45.716Z,100377.13
2023-12-29T15:37:13.209Z,100392.84
2023-12-29T15:39:42.910Z,100394.03
2023-12-29T15:42:09.975Z,100395.72
2023-12-29T15:44:37.040Z,100397.75
2023-12-29T15:47:06.737Z,100383.22
2023-12-29T15:49:33.870Z,100370.72
2023-12-29T15:52:01.302Z,100372.56
2023-12-29T15:54:28.333Z,100375.09
2023-12-29T15:56:55.374Z,100374.09
2023-12-29T15:59:22.368Z,100365.63
2023-12-29T16:01:49.418Z,100368.50
2023-12-29T16:04:19.212Z,100367.31
2023-12-29T16:06:46.304Z,100358.91
2023-12-29T16:09:13.270Z,100356.03
2023-12-29T16:11:40.290Z,100354.34
2023-12-29T16:14:07.484Z,100348.94
2023-12-29T16:16:34.701Z,100365.50
2023-12-29T16:19:02.091Z,100352.53
2023-12-29T16:24:03.910Z,100362.66
2023-12-29T16:26:38.371Z,100362.66
2023-12-29T16:29:09.841Z,100357.41
2023-12-29T16:31:36.988Z,100370.59
2023-12-29T16:34:04.566Z,100362.66
2023-12-29T16:36:34.270Z,100360.78
2023-12-29T16:39:01.256Z,100367.06
2023-12-29T16:41:28.261Z,100353.16
2023-12-29T16:43:55.275Z,100353.38
2023-12-29T16:46:22.410Z,100359.63
2023-12-29T16:48:49.552Z,100361.66
2023-12-29T16:51:16.698Z,100365.34
2023-12-29T16:53:46.297Z,100366.88
2023-12-29T16:56:13.355Z,100367.06
2023-12-29T16:58:40.435Z,100368.75
2023-12-29T17:01:07.440Z,100363.50
2023-12-29T17:03:34.529Z,100373.47
2023-12-29T17:06:01.557Z,100369.06
2023-12-29T17:08:28.604Z,100367.75
2023-12-29T17:10:58.208Z,100366.38
2023-12-29T17:13:25.274Z,100368.94
2023-12-29T17:15:52.408Z,100364.72
2023-12-29T17:18:19.483Z,100373.81
2023-12-29T17:20:46.485Z,100366.91
2023-12-29T17:23:13.526Z,100365.22
2023-12-29T17:25:46.643Z,100368.09
2023-12-29T17:28:20.381Z,100362.50
2023-12-29T17:30:47.496Z,100358.13
2023-12-29T17:33:14.556Z,100354.56
2023-12-29T17:35:41.635Z,100349.34
2023-12-29T17:38:08.637Z,100361.34
2023-12-29T17:40:35.636Z,100350.34
2023-12-29T17:43:02.910Z,100359.66
2023-12-29T17:45:32.727Z,100369.63
2023-12-29T17:47:59.807Z,100363.72
2023-12-29T17:50:26.887Z,100361.00
2023-12-29T17:52:53.940Z,100370.81
2023-12-29T17:55:21.077Z,100360.00
2023-12-29T17:57:48.201Z,100367.44
2023-12-29T18:00:16.386Z,100351.41
2023-12-29T18:02:46.018Z,100366.09
2023-12-29T18:05:13.081Z,100355.97
2023-12-29T18:07:40.205Z,100355.31
2023-12-29T18:10:07.879Z,100354.28
2023-12-29T18:12:34.935Z,100362.72
2023-12-29T18:15:01.985Z,100359.00
2023-12-29T18:17:29.089Z,100364.09
2023-12-29T18:19:58.762Z,100369.50
2023-12-29T18:22:25.940Z,100364.94
2023-12-29T18:24:53.072Z,100374.53
2023-12-29T18:27:20.128Z,100363.41
2023-12-29T18:29:47.177Z,100360.72
2023-12-29T18:32:20.023Z,100354.28
2023-12-29T18:34:49.654Z,100352.75
2023-12-29T18:37:19.602Z,100339.09
2023-12-29T18:39:46.976Z,100346.50
2023-12-29T18:42:14.034Z,100345.66
2023-12-29T18:44:41.171Z,100353.13
2023-12-29T18:47:08.231Z,100350.94
2023-12-29T18:49:35.761Z,100334.88
2023-12-29T18:52:02.971Z,100347.53
2023-12-29T18:54:32.663Z,100346.69
2023-12-29T18:57:00.000Z,100340.81
2023-12-29T18:59:27.656Z,100338.66
2023-12-29T19:01:56.286Z,100334.09
2023-12-29T19:04:23.482Z,100325.50
2023-12-29T19:06:50.552Z,100325.16
2023-12-29T19:09:17.581Z,100329.88
2023-12-29T19:11:47.386Z,100335.44
2023-12-29T19:14:14.395Z,100333.59
2023-12-29T19:16:41.508Z,100338.47
2023-12-29T19:19:08.768Z,100337.84
2023-12-29T19:21:40.325Z,100340.53
2023-12-29T19:24:07.822Z,100335.16
2023-12-29T19:26:34.858Z,100331.59
2023-12-29T19:29:04.558Z,100335.47
2023-12-29T19:31:31.634Z,100338.19
2023-12-29T19:33:58.709Z,100337.53
2023-12-29T19:36:25.742Z,100332.13
2023-12-29T19:38:52.764Z,100327.22
2023-12-29T19:41:21.124Z,100333.47
2023-12-29T19:43:48.882Z,100330.59
2023-12-29T19:46:20.464Z,100338.88
2023-12-29T19:48:49.287Z,100324.88
2023-12-29T19:51:19.148Z,100323.34
2023-12-29T19:53:46.184Z,100346.81
2023-12-29T19:56:13.301Z,100339.19
2023-12-29T19:58:40.330Z,100353.38
2023-12-29T20:01:07.757Z,100347.47
2023-12-29T20:03:37.663Z,100342.72
2023-12-29T20:06:05.116Z,100337.16
2023-12-29T20:08:32.198Z,100349.97
2023-12-29T20:11:01.197Z,100336.47
2023-12-29T20:13:28.386Z,100344.94
2023-12-29T20:15:55.488Z,100341.38
2023-12-29T20:18:22.599Z,100340.19
2023-12-29T20:20:52.279Z,100325.34
2023-12-29T20:23:19.285Z,100322.63
2023-12-29T20:25:46.242Z,100329.72
2023-12-29T20:28:13.763Z,100334.75
2023-12-29T20:30:40.851Z,100335.44
2023-12-29T20:33:07.911Z,100350.97
2023-12-29T20:35:34.931Z,100365.84
2023-12-29T20:38:04.654Z,100356.72
2023-12-29T20:40:31.759Z,100369.72
2023-12-29T20:42:58.878Z,100353.19
2023-12-29T20:45:25.903Z,100356.22
2023-12-29T20:47:52.997Z,100354.38
2023-12-29T20:50:20.087Z,100367.88
2023-12-29T20:52:47.141Z,100359.94
2023-12-29T20:55:16.770Z,100366.19
2023-12-29T20:57:43.831Z,100368.56
2023-12-29T21:00:11.758Z,100351.34
2023-12-29T21:02:38.739Z,100355.22
2023-12-29T21:05:06.712Z,100348.31
2023-12-29T21:07:33.810Z,100339.88
2023-12-29T21:10:00.910Z,100346.13
2023-12-29T21:12:30.511Z,100339.72
2023-12-29T21:14:57.496Z,100329.44
2023-12-29T21:17:24.564Z,100333.63
2023-12-29T21:19:53.764Z,100339.53
2023-12-29T21:22:21.032Z,100336.16
2023-12-29T21:24:48.133Z,100334.00
2023-12-29T21:27:15.206Z,100339.53
2023-12-29T21:29:44.772Z,100341.25
2023-12-29T21:32:12.010Z,100342.25
2023-12-29T21:34:39.453Z,100349.66
2023-12-29T21:37:06.608Z,100348.81
2023-12-29T21:39:33.636Z,100347.28
2023-12-29T21:42:00.810Z,100360.78
2023-12-29T21:44:27.877Z,100353.72
2023-12-29T21:46:57.522Z,100352.69
2023-12-29T21:49:24.578Z,100346.63
2023-12-29T21:51:51.915Z,100358.94
2023-12-29T21:54:18.999Z,100355.41
2023-12-29T21:56:46.110Z,100357.94
2023-12-29T21:59:13.239Z,100359.63
2023-12-29T22:01:40.648Z,100359.97
2023-12-29T22:04:10.945Z,100361.13
2023-12-29T22:06:40.364Z,100366.53
2023-12-29T22:09:08.041Z,100356.06
2023-12-29T22:11:35.686Z,100359.78
2023-12-29T22:14:04.020Z,100353.38
2023-12-29T22:16:31.152Z,100353.38
2023-12-29T22:18:58.798Z,100342.94
2023-12-29T22:21:28.483Z,100344.94
2023-12-29T22:23:55.456Z,100340.22
2023-12-29T22:26:22.480Z,100326.75
2023-12-29T22:28:50.904Z,100331.78
2023-12-29T22:31:19.158Z,100333.47
2023-12-29T22:33:46.707Z,100326.06
2023-12-29T22:36:15.864Z,100334.47
2023-12-29T22:38:45.997Z,100333.81
2023-12-29T22:41:15.617Z,100341.25
2023-12-29T22:43:42.627Z,100340.56
2023-12-29T22:46:09.995Z,100353.03
2023-12-29T22:48:37.063Z,100351.34
2023-12-29T22:51:04.599Z,100347.31
2023-12-29T22:53:31.911Z,100344.63
2023-12-29T22:56:02.056Z,100340.56
2023-12-29T22:58:29.670Z,100343.63
2023-12-29T23:00:56.849Z,100337.69
2023-12-29T23:03:23.926Z,100340.72
2023-12-29T23:05:51.173Z,100341.75
2023-12-29T23:08:18.622Z,100339.06
2023-12-29T23:10:45.815Z,100341.91
2023-12-29T23:13:15.574Z,100333.97
2023-12-29T23:15:43.116Z,100336.16
2023-12-29T23:18:10.199Z,100351.53
2023-12-29T23:20:37.439Z,100349.31
2023-12-29T23:23:04.837Z,100350.84
2023-12-29T23:25:32.097Z,100349.66
2023-12-29T23:27:59.199Z,100348.50
2023-12-29T23:30:28.814Z,100358.75
2023-12-29T23:32:55.901Z,100365.00
2023-12-29T23:35:24.765Z,100357.44
2023-12-29T23:37:52.850Z,100373.63
2023-12-29T23:40:20.211Z,100376.16
2023-12-29T23:42:47.383Z,100376.00
2023-12-29T23:45:14.467Z,100373.28
2023-12-29T23:47:44.152Z,100371.25
2023-12-29T23:50:11.436Z,100367.53
2023-12-29T23:52:38.421Z,100358.75
2023-12-29T23:55:06.856Z,100360.13
2023-12-29T23:57:33.899Z,100366.38
